sensor_id;sensor_type;location;lat;lon;timestamp;temperature;humidity
11700;DHT22;5906;51.660;6.674;2022-07-06T00:02:18;13.30;99.90
11700;DHT22;5906;51.660;6.674;2022-07-06T00:04:48;13.20;99.90
11700;DHT22;5906;51.660;6.674;2022-07-06T00:07:15;13.20;99.90
11700;DHT22;5906;51.660;6.674;2022-07-06T00:09:43;13.20;99.90
11700;DHT22;5906;51.660;6.674;2022-07-06T00:12:09;13.20;99.90
11700;DHT22;5906;51.660;6.674;2022-07-06T00:14:36;13.20;99.90
11700;DHT22;5906;51.660;6.674;2022-07-06T00:17:03;13.20;99.90
11700;DHT22;5906;51.660;6.674;2022-07-06T00:19:31;13.20;99.90
11700;DHT22;5906;51.660;6.674;2022-07-06T00:21:58;13.20;99.90
11700;DHT22;5906;51.660;6.674;2022-07-06T00:24:25;13.20;99.90
11700;DHT22;5906;51.660;6.674;2022-07-06T00:26:53;13.20;99.90
11700;DHT22;5906;51.660;6.674;2022-07-06T00:29:19;13.20;99.90
11700;DHT22;5906;51.660;6.674;2022-07-06T00:31:46;13.20;99.90
11700;DHT22;5906;51.660;6.674;2022-07-06T00:34:16;13.10;99.90
11700;DHT22;5906;51.660;6.674;2022-07-06T00:36:44;13.10;99.90
11700;DHT22;5906;51.660;6.674;2022-07-06T00:39:11;13.10;99.90
11700;DHT22;5906;51.660;6.674;2022-07-06T00:41:38;13.00;99.90
11700;DHT22;5906;51.660;6.674;2022-07-06T00:44:08;13.00;99.90
11700;DHT22;5906;51.660;6.674;2022-07-06T00:46:36;12.80;99.90
11700;DHT22;5906;51.660;6.674;2022-07-06T00:49:03;12.80;99.90
11700;DHT22;5906;51.660;6.674;2022-07-06T00:51:32;12.70;99.90
11700;DHT22;5906;51.660;6.674;2022-07-06T00:54:03;12.50;99.90
11700;DHT22;5906;51.660;6.674;2022-07-06T00:56:31;12.40;99.90
11700;DHT22;5906;51.660;6.674;2022-07-06T00:59:00;12.40;99.90
11700;DHT22;5906;51.660;6.674;2022-07-06T01:01:26;12.30;99.90
11700;DHT22;5906;51.660;6.674;2022-07-06T01:03:53;12.20;99.90
11700;DHT22;5906;51.660;6.674;2022-07-06T01:06:20;12.10;99.90
11700;DHT22;5906;51.660;6.674;2022-07-06T01:08:47;12.10;99.90
11700;DHT22;5906;51.660;6.674;2022-07-06T01:11:16;12.00;99.90
11700;DHT22;5906;51.660;6.674;2022-07-06T01:13:45;12.00;99.90
11700;DHT22;5906;51.660;6.674;2022-07-06T01:16:12;12.00;99.90
11700;DHT22;5906;51.660;6.674;2022-07-06T01:18:39;11.90;99.90
11700;DHT22;5906;51.660;6.674;2022-07-06T01:21:09;11.90;99.90
11700;DHT22;5906;51.660;6.674;2022-07-06T01:23:44;11.80;99.90
11700;DHT22;5906;51.660;6.674;2022-07-06T01:26:17;11.80;99.90
11700;DHT22;5906;51.660;6.674;2022-07-06T01:28:51;11.70;99.90
11700;DHT22;5906;51.660;6.674;2022-07-06T01:31:24;11.70;99.90
11700;DHT22;5906;51.660;6.674;2022-07-06T01:33:53;11.60;99.90
11700;DHT22;5906;51.660;6.674;2022-07-06T01:36:21;11.50;99.90
11700;DHT22;5906;51.660;6.674;2022-07-06T01:38:52;11.50;99.90
11700;DHT22;5906;51.660;6.674;2022-07-06T01:41:20;11.40;99.90
11700;DHT22;5906;51.660;6.674;2022-07-06T01:43:48;11.40;99.90
11700;DHT22;5906;51.660;6.674;2022-07-06T01:46:15;11.30;99.90
11700;DHT22;5906;51.660;6.674;2022-07-06T01:48:42;11.40;99.90
11700;DHT22;5906;51.660;6.674;2022-07-06T01:51:10;11.40;99.90
11700;DHT22;5906;51.660;6.674;2022-07-06T01:53:38;11.30;99.90
11700;DHT22;5906;51.660;6.674;2022-07-06T01:56:05;11.20;99.90
11700;DHT22;5906;51.660;6.674;2022-07-06T01:58:32;11.20;99.90
11700;DHT22;5906;51.660;6.674;2022-07-06T02:00:59;11.10;99.90
11700;DHT22;5906;51.660;6.674;2022-07-06T02:03:26;11.10;99.90
11700;DHT22;5906;51.660;6.674;2022-07-06T02:05:53;11.10;99.90
11700;DHT22;5906;51.660;6.674;2022-07-06T02:08:20;11.00;99.90
11700;DHT22;5906;51.660;6.674;2022-07-06T02:10:48;11.00;99.90
11700;DHT22;5906;51.660;6.674;2022-07-06T02:13:14;11.00;99.90
11700;DHT22;5906;51.660;6.674;2022-07-06T02:15:41;11.00;99.90
11700;DHT22;5906;51.660;6.674;2022-07-06T02:18:08;11.00;99.90
11700;DHT22;5906;51.660;6.674;2022-07-06T02:20:35;11.00;99.90
11700;DHT22;5906;51.660;6.674;2022-07-06T02:23:03;11.00;99.90
11700;DHT22;5906;51.660;6.674;2022-07-06T02:25:30;11.00;99.90
11700;DHT22;5906;51.660;6.674;2022-07-06T02:27:56;10.90;99.90
11700;DHT22;5906;51.660;6.674;2022-07-06T02:30:23;10.90;99.90
11700;DHT22;5906;51.660;6.674;2022-07-06T02:32:50;10.90;99.90
11700;DHT22;5906;51.660;6.674;2022-07-06T02:35:17;10.90;99.90
11700;DHT22;5906;51.660;6.674;2022-07-06T02:37:44;10.90;99.90
11700;DHT22;5906;51.660;6.674;2022-07-06T02:40:11;10.90;99.90
11700;DHT22;5906;51.660;6.674;2022-07-06T02:42:38;10.80;99.90
11700;DHT22;5906;51.660;6.674;2022-07-06T02:45:06;10.80;99.90
11700;DHT22;5906;51.660;6.674;2022-07-06T02:47:33;10.70;99.90
11700;DHT22;5906;51.660;6.674;2022-07-06T02:50:00;10.80;99.90
11700;DHT22;5906;51.660;6.674;2022-07-06T02:52:26;10.90;99.90
11700;DHT22;5906;51.660;6.674;2022-07-06T02:54:53;10.90;99.90
11700;DHT22;5906;51.660;6.674;2022-07-06T02:57:20;10.90;99.90
11700;DHT22;5906;51.660;6.674;2022-07-06T02:59:47;11.00;99.90
11700;DHT22;5906;51.660;6.674;2022-07-06T03:02:16;11.10;99.90
11700;DHT22;5906;51.660;6.674;2022-07-06T03:04:43;11.10;99.90
11700;DHT22;5906;51.660;6.674;2022-07-06T03:07:10;11.10;99.90
11700;DHT22;5906;51.660;6.674;2022-07-06T03:09:37;11.20;99.90
11700;DHT22;5906;51.660;6.674;2022-07-06T03:12:04;11.10;99.90
11700;DHT22;5906;51.660;6.674;2022-07-06T03:14:31;11.20;99.90
11700;DHT22;5906;51.660;6.674;2022-07-06T03:16:58;11.20;99.90
11700;DHT22;5906;51.660;6.674;2022-07-06T03:19:25;11.30;99.90
11700;DHT22;5906;51.660;6.674;2022-07-06T03:21:51;11.30;99.90
11700;DHT22;5906;51.660;6.674;2022-07-06T03:24:18;11.30;99.90
11700;DHT22;5906;51.660;6.674;2022-07-06T03:26:45;11.40;99.90
11700;DHT22;5906;51.660;6.674;2022-07-06T03:29:12;11.40;99.90
11700;DHT22;5906;51.660;6.674;2022-07-06T03:31:39;11.50;99.90
11700;DHT22;5906;51.660;6.674;2022-07-06T03:34:06;11.50;99.90
11700;DHT22;5906;51.660;6.674;2022-07-06T03:36:33;11.60;99.90
11700;DHT22;5906;51.660;6.674;2022-07-06T03:39:05;11.70;99.90
11700;DHT22;5906;51.660;6.674;2022-07-06T03:41:32;11.90;99.90
11700;DHT22;5906;51.660;6.674;2022-07-06T03:43:59;12.10;99.90
11700;DHT22;5906;51.660;6.674;2022-07-06T03:46:28;12.20;99.90
11700;DHT22;5906;51.660;6.674;2022-07-06T03:48:55;12.30;99.90
11700;DHT22;5906;51.660;6.674;2022-07-06T03:51:22;12.40;99.90
11700;DHT22;5906;51.660;6.674;2022-07-06T03:53:49;12.50;99.90
11700;DHT22;5906;51.660;6.674;2022-07-06T03:56:16;12.60;99.90
11700;DHT22;5906;51.660;6.674;2022-07-06T03:59:04;12.70;99.90
11700;DHT22;5906;51.660;6.674;2022-07-06T04:01:31;12.80;99.90
11700;DHT22;5906;51.660;6.674;2022-07-06T04:03:58;12.90;99.90
11700;DHT22;5906;51.660;6.674;2022-07-06T04:06:25;12.90;99.90
11700;DHT22;5906;51.660;6.674;2022-07-06T04:08:52;13.00;99.90
11700;DHT22;5906;51.660;6.674;2022-07-06T04:11:18;13.10;99.90
11700;DHT22;5906;51.660;6.674;2022-07-06T04:13:46;13.10;99.90
11700;DHT22;5906;51.660;6.674;2022-07-06T04:16:13;13.20;99.90
11700;DHT22;5906;51.660;6.674;2022-07-06T04:18:39;13.30;99.90
11700;DHT22;5906;51.660;6.674;2022-07-06T04:21:06;13.30;99.90
11700;DHT22;5906;51.660;6.674;2022-07-06T04:23:33;13.40;99.90
11700;DHT22;5906;51.660;6.674;2022-07-06T04:26:00;13.40;99.90
11700;DHT22;5906;51.660;6.674;2022-07-06T04:28:28;13.40;99.90
11700;DHT22;5906;51.660;6.674;2022-07-06T04:30:54;13.50;99.90
11700;DHT22;5906;51.660;6.674;2022-07-06T04:33:21;13.50;99.90
11700;DHT22;5906;51.660;6.674;2022-07-06T04:35:48;13.60;99.90
11700;DHT22;5906;51.660;6.674;2022-07-06T04:38:15;13.70;99.90
11700;DHT22;5906;51.660;6.674;2022-07-06T04:40:42;13.80;99.90
11700;DHT22;5906;51.660;6.674;2022-07-06T04:43:08;13.90;99.90
11700;DHT22;5906;51.660;6.674;2022-07-06T04:45:35;14.00;99.90
11700;DHT22;5906;51.660;6.674;2022-07-06T04:48:02;14.10;99.90
11700;DHT22;5906;51.660;6.674;2022-07-06T04:50:29;14.20;99.90
11700;DHT22;5906;51.660;6.674;2022-07-06T04:53:03;14.30;99.90
11700;DHT22;5906;51.660;6.674;2022-07-06T04:55:30;14.40;78.20
11700;DHT22;5906;51.660;6.674;2022-07-06T04:57:57;14.70;1.00
11700;DHT22;5906;51.660;6.674;2022-07-06T05:00:23;15.10;1.00
11700;DHT22;5906;51.660;6.674;2022-07-06T05:02:50;15.30;1.00
11700;DHT22;5906;51.660;6.674;2022-07-06T05:05:17;15.30;1.00
11700;DHT22;5906;51.660;6.674;2022-07-06T05:07:44;15.30;1.00
11700;DHT22;5906;51.660;6.674;2022-07-06T05:10:11;15.30;55.90
11700;DHT22;5906;51.660;6.674;2022-07-06T05:12:39;15.30;1.00
11700;DHT22;5906;51.660;6.674;2022-07-06T05:15:06;15.30;1.00
11700;DHT22;5906;51.660;6.674;2022-07-06T05:17:33;15.30;1.00
11700;DHT22;5906;51.660;6.674;2022-07-06T05:20:00;15.30;99.90
11700;DHT22;5906;51.660;6.674;2022-07-06T05:22:27;15.30;1.00
11700;DHT22;5906;51.660;6.674;2022-07-06T05:24:54;15.30;99.90
11700;DHT22;5906;51.660;6.674;2022-07-06T05:27:21;15.40;99.90
11700;DHT22;5906;51.660;6.674;2022-07-06T05:29:48;15.50;67.30
11700;DHT22;5906;51.660;6.674;2022-07-06T05:32:14;15.70;1.00
11700;DHT22;5906;51.660;6.674;2022-07-06T05:34:41;15.90;1.00
11700;DHT22;5906;51.660;6.674;2022-07-06T05:37:08;16.00;99.90
11700;DHT22;5906;51.660;6.674;2022-07-06T05:39:35;16.00;26.90
11700;DHT22;5906;51.660;6.674;2022-07-06T05:42:03;16.10;99.90
11700;DHT22;5906;51.660;6.674;2022-07-06T05:44:30;16.20;99.90
11700;DHT22;5906;51.660;6.674;2022-07-06T05:46:57;16.20;1.00
11700;DHT22;5906;51.660;6.674;2022-07-06T05:49:44;16.20;99.90
11700;DHT22;5906;51.660;6.674;2022-07-06T05:52:29;16.10;1.00
11700;DHT22;5906;51.660;6.674;2022-07-06T05:54:56;16.10;18.70
11700;DHT22;5906;51.660;6.674;2022-07-06T05:57:22;16.20;1.00
11700;DHT22;5906;51.660;6.674;2022-07-06T05:59:49;16.30;1.00
11700;DHT22;5906;51.660;6.674;2022-07-06T06:02:16;16.40;1.00
11700;DHT22;5906;51.660;6.674;2022-07-06T06:04:43;16.40;1.00
11700;DHT22;5906;51.660;6.674;2022-07-06T06:07:10;16.50;1.00
11700;DHT22;5906;51.660;6.674;2022-07-06T06:09:37;16.50;1.00
11700;DHT22;5906;51.660;6.674;2022-07-06T06:12:04;16.60;1.00
11700;DHT22;5906;51.660;6.674;2022-07-06T06:14:31;16.60;42.70
11700;DHT22;5906;51.660;6.674;2022-07-06T06:16:58;16.60;59.40
11700;DHT22;5906;51.660;6.674;2022-07-06T06:19:26;16.60;1.00
11700;DHT22;5906;51.660;6.674;2022-07-06T06:21:53;16.70;29.20
11700;DHT22;5906;51.660;6.674;2022-07-06T06:24:19;16.80;1.00
11700;DHT22;5906;51.660;6.674;2022-07-06T06:26:46;16.90;1.00
11700;DHT22;5906;51.660;6.674;2022-07-06T06:29:13;16.90;1.00
11700;DHT22;5906;51.660;6.674;2022-07-06T06:31:40;16.90;1.00
11700;DHT22;5906;51.660;6.674;2022-07-06T06:34:07;17.00;1.00
11700;DHT22;5906;51.660;6.674;2022-07-06T06:36:34;17.00;1.00
11700;DHT22;5906;51.660;6.674;2022-07-06T06:39:01;17.00;1.00
11700;DHT22;5906;51.660;6.674;2022-07-06T06:41:29;17.10;1.00
11700;DHT22;5906;51.660;6.674;2022-07-06T06:43:55;17.40;1.00
11700;DHT22;5906;51.660;6.674;2022-07-06T06:46:22;17.50;1.00
11700;DHT22;5906;51.660;6.674;2022-07-06T06:48:49;17.60;1.00
11700;DHT22;5906;51.660;6.674;2022-07-06T06:51:16;17.70;1.00
11700;DHT22;5906;51.660;6.674;2022-07-06T06:53:43;17.70;1.00
11700;DHT22;5906;51.660;6.674;2022-07-06T06:56:09;17.80;99.90
11700;DHT22;5906;51.660;6.674;2022-07-06T06:58:36;17.90;1.00
11700;DHT22;5906;51.660;6.674;2022-07-06T07:01:24;18.00;1.00
11700;DHT22;5906;51.660;6.674;2022-07-06T07:03:51;18.20;1.00
11700;DHT22;5906;51.660;6.674;2022-07-06T07:06:19;18.40;1.00
11700;DHT22;5906;51.660;6.674;2022-07-06T07:08:45;18.80;99.90
11700;DHT22;5906;51.660;6.674;2022-07-06T07:11:13;19.20;99.90
11700;DHT22;5906;51.660;6.674;2022-07-06T07:13:39;19.40;99.90
11700;DHT22;5906;51.660;6.674;2022-07-06T07:16:06;19.60;99.90
11700;DHT22;5906;51.660;6.674;2022-07-06T07:18:34;19.80;99.90
11700;DHT22;5906;51.660;6.674;2022-07-06T07:21:01;20.00;99.90
11700;DHT22;5906;51.660;6.674;2022-07-06T07:23:28;20.30;99.90
11700;DHT22;5906;51.660;6.674;2022-07-06T07:25:55;20.40;99.90
11700;DHT22;5906;51.660;6.674;2022-07-06T07:28:21;20.30;99.90
11700;DHT22;5906;51.660;6.674;2022-07-06T07:30:49;20.30;99.90
11700;DHT22;5906;51.660;6.674;2022-07-06T07:33:17;20.40;99.90
11700;DHT22;5906;51.660;6.674;2022-07-06T07:35:44;20.50;99.90
11700;DHT22;5906;51.660;6.674;2022-07-06T07:38:11;20.80;99.90
11700;DHT22;5906;51.660;6.674;2022-07-06T07:40:38;21.00;99.90
11700;DHT22;5906;51.660;6.674;2022-07-06T07:43:04;21.00;99.90
11700;DHT22;5906;51.660;6.674;2022-07-06T07:45:31;21.30;92.80
11700;DHT22;5906;51.660;6.674;2022-07-06T07:47:58;21.30;84.60
11700;DHT22;5906;51.660;6.674;2022-07-06T07:50:25;21.00;54.60
11700;DHT22;5906;51.660;6.674;2022-07-06T07:52:53;20.90;99.90
11700;DHT22;5906;51.660;6.674;2022-07-06T07:55:20;20.90;1.00
11700;DHT22;5906;51.660;6.674;2022-07-06T07:58:06;20.80;1.00
11700;DHT22;5906;51.660;6.674;2022-07-06T08:00:33;20.50;99.90
11700;DHT22;5906;51.660;6.674;2022-07-06T08:03:00;20.50;99.90
11700;DHT22;5906;51.660;6.674;2022-07-06T08:05:27;20.40;99.90
11700;DHT22;5906;51.660;6.674;2022-07-06T08:07:54;20.50;99.90
11700;DHT22;5906;51.660;6.674;2022-07-06T08:10:22;20.70;99.90
11700;DHT22;5906;51.660;6.674;2022-07-06T08:12:49;20.80;99.90
11700;DHT22;5906;51.660;6.674;2022-07-06T08:15:16;20.80;99.90
11700;DHT22;5906;51.660;6.674;2022-07-06T08:17:42;20.60;99.90
11700;DHT22;5906;51.660;6.674;2022-07-06T08:20:11;20.70;99.90
11700;DHT22;5906;51.660;6.674;2022-07-06T08:22:38;20.80;99.90
11700;DHT22;5906;51.660;6.674;2022-07-06T08:25:05;20.90;99.90
11700;DHT22;5906;51.660;6.674;2022-07-06T08:27:32;20.80;99.90
11700;DHT22;5906;51.660;6.674;2022-07-06T08:30:00;20.50;99.90
11700;DHT22;5906;51.660;6.674;2022-07-06T08:32:27;20.50;99.90
11700;DHT22;5906;51.660;6.674;2022-07-06T08:35:14;20.70;99.90
11700;DHT22;5906;51.660;6.674;2022-07-06T08:37:41;21.30;99.90
11700;DHT22;5906;51.660;6.674;2022-07-06T08:40:08;21.60;99.90
11700;DHT22;5906;51.660;6.674;2022-07-06T08:42:36;21.70;99.90
11700;DHT22;5906;51.660;6.674;2022-07-06T08:45:06;21.50;99.90
11700;DHT22;5906;51.660;6.674;2022-07-06T08:47:36;21.30;99.90
11700;DHT22;5906;51.660;6.674;2022-07-06T08:50:05;21.00;99.90
11700;DHT22;5906;51.660;6.674;2022-07-06T08:52:32;20.70;99.90
11700;DHT22;5906;51.660;6.674;2022-07-06T08:55:00;20.60;99.90
11700;DHT22;5906;51.660;6.674;2022-07-06T08:57:28;20.80;99.90
11700;DHT22;5906;51.660;6.674;2022-07-06T08:59:55;21.10;99.90
11700;DHT22;5906;51.660;6.674;2022-07-06T09:02:24;21.10;99.90
11700;DHT22;5906;51.660;6.674;2022-07-06T09:04:55;21.00;99.90
11700;DHT22;5906;51.660;6.674;2022-07-06T09:07:27;20.90;99.90
11700;DHT22;5906;51.660;6.674;2022-07-06T09:10:18;20.80;99.90
11700;DHT22;5906;51.660;6.674;2022-07-06T09:12:45;20.80;99.90
11700;DHT22;5906;51.660;6.674;2022-07-06T09:15:12;20.70;99.90
11700;DHT22;5906;51.660;6.674;2022-07-06T09:17:41;21.20;99.90
11700;DHT22;5906;51.660;6.674;2022-07-06T09:20:09;21.60;99.90
11700;DHT22;5906;51.660;6.674;2022-07-06T09:22:38;22.00;99.90
11700;DHT22;5906;51.660;6.674;2022-07-06T09:25:07;21.90;99.90
11700;DHT22;5906;51.660;6.674;2022-07-06T09:27:47;21.90;99.90
11700;DHT22;5906;51.660;6.674;2022-07-06T09:30:16;22.20;99.30
11700;DHT22;5906;51.660;6.674;2022-07-06T09:32:46;22.60;1.00
11700;DHT22;5906;51.660;6.674;2022-07-06T09:37:47;23.40;1.00
11700;DHT22;5906;51.660;6.674;2022-07-06T09:40:18;23.20;99.90
11700;DHT22;5906;51.660;6.674;2022-07-06T09:42:45;22.80;1.00
11700;DHT22;5906;51.660;6.674;2022-07-06T09:45:12;22.60;13.30
11700;DHT22;5906;51.660;6.674;2022-07-06T09:47:39;22.70;92.40
11700;DHT22;5906;51.660;6.674;2022-07-06T09:50:15;23.10;92.30
11700;DHT22;5906;51.660;6.674;2022-07-06T09:52:53;23.40;85.30
11700;DHT22;5906;51.660;6.674;2022-07-06T09:55:22;23.40;90.20
11700;DHT22;5906;51.660;6.674;2022-07-06T09:57:53;23.20;89.50
11700;DHT22;5906;51.660;6.674;2022-07-06T10:00:21;22.80;90.50
11700;DHT22;5906;51.660;6.674;2022-07-06T10:02:49;22.30;91.70
11700;DHT22;5906;51.660;6.674;2022-07-06T10:05:22;22.10;95.20
11700;DHT22;5906;51.660;6.674;2022-07-06T10:07:58;21.80;96.90
11700;DHT22;5906;51.660;6.674;2022-07-06T10:10:29;21.80;98.30
11700;DHT22;5906;51.660;6.674;2022-07-06T10:12:57;21.80;97.80
11700;DHT22;5906;51.660;6.674;2022-07-06T10:15:27;21.70;96.30
11700;DHT22;5906;51.660;6.674;2022-07-06T10:17:55;21.70;95.60
11700;DHT22;5906;51.660;6.674;2022-07-06T10:20:23;21.90;95.80
11700;DHT22;5906;51.660;6.674;2022-07-06T10:22:51;22.40;96.30
11700;DHT22;5906;51.660;6.674;2022-07-06T10:25:18;22.50;94.00
11700;DHT22;5906;51.660;6.674;2022-07-06T10:27:47;22.60;94.20
11700;DHT22;5906;51.660;6.674;2022-07-06T10:30:15;22.50;94.00
11700;DHT22;5906;51.660;6.674;2022-07-06T10:32:44;22.30;94.60
11700;DHT22;5906;51.660;6.674;2022-07-06T10:35:17;22.40;96.20
11700;DHT22;5906;51.660;6.674;2022-07-06T10:37:46;22.50;96.00
11700;DHT22;5906;51.660;6.674;2022-07-06T10:40:37;22.80;94.80
11700;DHT22;5906;51.660;6.674;2022-07-06T10:43:23;23.00;95.80
11700;DHT22;5906;51.660;6.674;2022-07-06T10:45:57;23.20;96.50
11700;DHT22;5906;51.660;6.674;2022-07-06T10:48:24;23.30;95.20
11700;DHT22;5906;51.660;6.674;2022-07-06T10:50:54;23.40;96.60
11700;DHT22;5906;51.660;6.674;2022-07-06T10:53:24;23.60;95.90
11700;DHT22;5906;51.660;6.674;2022-07-06T10:55:55;23.70;94.30
11700;DHT22;5906;51.660;6.674;2022-07-06T11:01:14;23.90;94.30
11700;DHT22;5906;51.660;6.674;2022-07-06T11:06:18;23.70;90.50
11700;DHT22;5906;51.660;6.674;2022-07-06T11:08:54;23.70;92.40
11700;DHT22;5906;51.660;6.674;2022-07-06T11:14:06;24.00;92.20
11700;DHT22;5906;51.660;6.674;2022-07-06T11:16:37;24.00;91.70
11700;DHT22;5906;51.660;6.674;2022-07-06T11:19:12;24.10;91.70
11700;DHT22;5906;51.660;6.674;2022-07-06T11:21:54;24.20;88.20
11700;DHT22;5906;51.660;6.674;2022-07-06T11:24:29;24.00;87.00
11700;DHT22;5906;51.660;6.674;2022-07-06T11:26:57;23.90;91.50
11700;DHT22;5906;51.660;6.674;2022-07-06T11:29:25;23.90;91.70
11700;DHT22;5906;51.660;6.674;2022-07-06T11:31:55;24.10;90.70
11700;DHT22;5906;51.660;6.674;2022-07-06T11:36:55;24.40;87.30
11700;DHT22;5906;51.660;6.674;2022-07-06T11:39:26;24.40;88.80
11700;DHT22;5906;51.660;6.674;2022-07-06T11:41:54;24.50;90.10
11700;DHT22;5906;51.660;6.674;2022-07-06T11:44:22;24.60;84.10
11700;DHT22;5906;51.660;6.674;2022-07-06T11:46:49;24.70;75.20
11700;DHT22;5906;51.660;6.674;2022-07-06T11:49:17;24.80;80.60
11700;DHT22;5906;51.660;6.674;2022-07-06T11:51:45;25.30;80.10
11700;DHT22;5906;51.660;6.674;2022-07-06T11:54:17;25.60;78.00
11700;DHT22;5906;51.660;6.674;2022-07-06T11:56:55;25.60;68.40
11700;DHT22;5906;51.660;6.674;2022-07-06T11:59:24;25.70;59.40
11700;DHT22;5906;51.660;6.674;2022-07-06T12:02:06;25.70;56.40
11700;DHT22;5906;51.660;6.674;2022-07-06T12:04:35;25.60;62.20
11700;DHT22;5906;51.660;6.674;2022-07-06T12:07:04;25.50;66.80
11700;DHT22;5906;51.660;6.674;2022-07-06T12:09:33;25.70;65.20
11700;DHT22;5906;51.660;6.674;2022-07-06T12:12:00;25.70;55.80
11700;DHT22;5906;51.660;6.674;2022-07-06T12:14:32;25.60;61.10
11700;DHT22;5906;51.660;6.674;2022-07-06T12:17:09;25.30;59.00
11700;DHT22;5906;51.660;6.674;2022-07-06T12:19:38;25.30;60.50
11700;DHT22;5906;51.660;6.674;2022-07-06T12:22:06;25.30;59.80
11700;DHT22;5906;51.660;6.674;2022-07-06T12:24:34;25.50;59.20
11700;DHT22;5906;51.660;6.674;2022-07-06T12:27:18;25.70;56.60
11700;DHT22;5906;51.660;6.674;2022-07-06T12:29:46;25.90;59.00
11700;DHT22;5906;51.660;6.674;2022-07-06T12:32:18;26.20;53.40
11700;DHT22;5906;51.660;6.674;2022-07-06T12:34:45;26.30;56.00
11700;DHT22;5906;51.660;6.674;2022-07-06T12:37:13;26.50;54.00
11700;DHT22;5906;51.660;6.674;2022-07-06T12:39:47;26.50;55.30
11700;DHT22;5906;51.660;6.674;2022-07-06T12:42:17;26.60;51.20
11700;DHT22;5906;51.660;6.674;2022-07-06T12:44:50;26.20;52.10
11700;DHT22;5906;51.660;6.674;2022-07-06T12:47:20;25.80;51.60
11700;DHT22;5906;51.660;6.674;2022-07-06T12:49:52;25.40;53.00
11700;DHT22;5906;51.660;6.674;2022-07-06T12:52:29;25.40;54.60
11700;DHT22;5906;51.660;6.674;2022-07-06T12:54:59;25.70;53.60
11700;DHT22;5906;51.660;6.674;2022-07-06T12:57:47;26.00;54.10
11700;DHT22;5906;51.660;6.674;2022-07-06T13:00:15;26.00;53.00
11700;DHT22;5906;51.660;6.674;2022-07-06T13:02:51;25.80;57.40
11700;DHT22;5906;51.660;6.674;2022-07-06T13:05:38;25.70;54.90
11700;DHT22;5906;51.660;6.674;2022-07-06T13:08:06;25.90;55.60
11700;DHT22;5906;51.660;6.674;2022-07-06T13:10:33;25.90;54.90
11700;DHT22;5906;51.660;6.674;2022-07-06T13:13:01;26.10;53.60
11700;DHT22;5906;51.660;6.674;2022-07-06T13:15:28;26.40;53.50
11700;DHT22;5906;51.660;6.674;2022-07-06T13:17:55;26.30;52.70
11700;DHT22;5906;51.660;6.674;2022-07-06T13:20:22;26.40;50.10
11700;DHT22;5906;51.660;6.674;2022-07-06T13:22:49;26.20;50.10
11700;DHT22;5906;51.660;6.674;2022-07-06T13:25:17;26.10;51.00
11700;DHT22;5906;51.660;6.674;2022-07-06T13:27:44;26.10;52.30
11700;DHT22;5906;51.660;6.674;2022-07-06T13:30:11;26.50;51.00
11700;DHT22;5906;51.660;6.674;2022-07-06T13:32:38;26.80;51.00
11700;DHT22;5906;51.660;6.674;2022-07-06T13:35:07;26.90;52.30
11700;DHT22;5906;51.660;6.674;2022-07-06T13:37:33;27.10;48.90
11700;DHT22;5906;51.660;6.674;2022-07-06T13:40:01;27.10;48.60
11700;DHT22;5906;51.660;6.674;2022-07-06T13:42:27;27.00;48.00
11700;DHT22;5906;51.660;6.674;2022-07-06T13:44:54;26.90;48.10
11700;DHT22;5906;51.660;6.674;2022-07-06T13:47:21;26.70;47.90
11700;DHT22;5906;51.660;6.674;2022-07-06T13:49:48;26.70;48.10
11700;DHT22;5906;51.660;6.674;2022-07-06T13:52:16;26.40;48.50
11700;DHT22;5906;51.660;6.674;2022-07-06T13:54:43;26.00;44.10
11700;DHT22;5906;51.660;6.674;2022-07-06T13:57:09;25.70;47.60
11700;DHT22;5906;51.660;6.674;2022-07-06T13:59:36;25.50;49.70
11700;DHT22;5906;51.660;6.674;2022-07-06T14:02:03;25.50;51.00
11700;DHT22;5906;51.660;6.674;2022-07-06T14:04:30;25.60;50.70
11700;DHT22;5906;51.660;6.674;2022-07-06T14:06:57;25.60;49.20
11700;DHT22;5906;51.660;6.674;2022-07-06T14:09:24;25.90;50.30
11700;DHT22;5906;51.660;6.674;2022-07-06T14:11:51;25.90;49.80
11700;DHT22;5906;51.660;6.674;2022-07-06T14:14:18;25.80;51.60
11700;DHT22;5906;51.660;6.674;2022-07-06T14:16:45;25.90;53.10
11700;DHT22;5906;51.660;6.674;2022-07-06T14:19:12;26.00;51.50
11700;DHT22;5906;51.660;6.674;2022-07-06T14:21:46;26.10;50.10
11700;DHT22;5906;51.660;6.674;2022-07-06T14:24:13;26.20;47.50
11700;DHT22;5906;51.660;6.674;2022-07-06T14:26:40;25.90;52.60
11700;DHT22;5906;51.660;6.674;2022-07-06T14:29:07;25.80;51.40
11700;DHT22;5906;51.660;6.674;2022-07-06T14:31:34;25.90;51.40
11700;DHT22;5906;51.660;6.674;2022-07-06T14:34:01;25.80;51.60
11700;DHT22;5906;51.660;6.674;2022-07-06T14:36:29;25.70;53.30
11700;DHT22;5906;51.660;6.674;2022-07-06T14:38:55;25.90;53.30
11700;DHT22;5906;51.660;6.674;2022-07-06T14:41:22;26.10;54.00
11700;DHT22;5906;51.660;6.674;2022-07-06T14:43:49;26.20;49.10
11700;DHT22;5906;51.660;6.674;2022-07-06T14:46:16;26.30;51.10
11700;DHT22;5906;51.660;6.674;2022-07-06T14:48:43;26.50;52.00
11700;DHT22;5906;51.660;6.674;2022-07-06T14:51:10;26.30;47.90
11700;DHT22;5906;51.660;6.674;2022-07-06T14:53:36;25.90;52.30
11700;DHT22;5906;51.660;6.674;2022-07-06T14:56:04;25.80;52.60
11700;DHT22;5906;51.660;6.674;2022-07-06T14:58:30;25.80;53.80
11700;DHT22;5906;51.660;6.674;2022-07-06T15:00:57;25.90;50.90
11700;DHT22;5906;51.660;6.674;2022-07-06T15:03:26;25.90;52.00
11700;DHT22;5906;51.660;6.674;2022-07-06T15:05:56;25.80;51.90
11700;DHT22;5906;51.660;6.674;2022-07-06T15:08:23;25.90;50.00
11700;DHT22;5906;51.660;6.674;2022-07-06T15:10:50;26.20;52.80
11700;DHT22;5906;51.660;6.674;2022-07-06T15:13:17;26.00;52.00
11700;DHT22;5906;51.660;6.674;2022-07-06T15:15:44;25.80;54.30
11700;DHT22;5906;51.660;6.674;2022-07-06T15:18:29;25.80;54.00
11700;DHT22;5906;51.660;6.674;2022-07-06T15:20:57;25.90;55.10
11700;DHT22;5906;51.660;6.674;2022-07-06T15:23:24;26.00;52.70
11700;DHT22;5906;51.660;6.674;2022-07-06T15:25:53;25.80;51.70
11700;DHT22;5906;51.660;6.674;2022-07-06T15:28:22;25.60;53.70
11700;DHT22;5906;51.660;6.674;2022-07-06T15:30:52;25.60;53.90
11700;DHT22;5906;51.660;6.674;2022-07-06T15:33:19;25.60;51.80
11700;DHT22;5906;51.660;6.674;2022-07-06T15:35:52;25.60;54.80
11700;DHT22;5906;51.660;6.674;2022-07-06T15:38:19;25.60;56.20
11700;DHT22;5906;51.660;6.674;2022-07-06T15:40:46;25.70;56.90
11700;DHT22;5906;51.660;6.674;2022-07-06T15:43:18;25.40;54.60
11700;DHT22;5906;51.660;6.674;2022-07-06T15:45:45;25.30;54.30
11700;DHT22;5906;51.660;6.674;2022-07-06T15:48:12;25.30;55.20
11700;DHT22;5906;51.660;6.674;2022-07-06T15:50:39;25.20;55.90
11700;DHT22;5906;51.660;6.674;2022-07-06T15:53:06;25.20;55.20
11700;DHT22;5906;51.660;6.674;2022-07-06T15:55:33;25.30;57.10
11700;DHT22;5906;51.660;6.674;2022-07-06T15:57:59;25.40;55.70
11700;DHT22;5906;51.660;6.674;2022-07-06T16:00:26;25.60;55.10
11700;DHT22;5906;51.660;6.674;2022-07-06T16:02:53;25.30;52.60
11700;DHT22;5906;51.660;6.674;2022-07-06T16:05:20;25.10;55.80
11700;DHT22;5906;51.660;6.674;2022-07-06T16:07:48;25.10;55.50
11700;DHT22;5906;51.660;6.674;2022-07-06T16:10:35;25.10;56.90